Felts Field
KSFF : now visible

Airfield :











YOU CAN JOIN US ON...

 
LOGIN :

Register | Disclaimer

   EN    FR    IT 

 









Legend :    VFR   Marginal VFR   IFR   Intensive IFR   Very Intensive IFR
Visi :
Ceiling :
>= 8 km
>= 3000ft
5 to 8 km
1000 to 3000 ft
1500m to 5 km
500 to 1000 ft
800 to 1500m
200 to 500 ft
< 800m
< 200 ft
Symbols :   Thunderstorms  Fog  Heavy snow  Heavy precipitations  Wind > 20 kt






- Airport Elevation : 1953 ft


KSFF - Felts Field

CURRENT METAR :
  • 212353Z 20007KT 8SM -RA BKN041 OVC050 09/06 A3021 RMK AO2 SLP235 P0002 60004 T00940056 10100 20078 58001

EXPIRED METARs :
  • 212253Z 22005KT 8SM -RA OVC035 10/07 A3021 RMK AO2 RAB2159 SLP235 P0001 T01000067
  • 212153Z 24004KT 10SM FEW040 SCT065 OVC080 10/06 A3021 RMK AO2 RAB01E11 SLP235 P0000 T01000056

TAF KSFF
Valid from the 22 at 00:00 until the 23 at 00:00 UTC


212330Z 2200/2224 22005KT P6SM -RA FEW020 OVC035
FM220200 21005KT 6SM -RA BR BKN015 OVC030
FM221100 23008KT P6SM SCT007 OVC015
FM221500 24009G17KT P6SM SCT010 OVC015
FM221700 24011G18KT P6SM SCT020
FM222000 27014G20KT P6SM FEW040



MET'MAP, your aeronautical weather chart ! - Copyright ORBIFLY December 2007 - Disclaimer

ORBIFLY MET'MAP TEAM :

Programming & Development : Alexandra Zaïnal
Concept & Development : Baudouin d'Aumeries
Co-Development & Prog : Marc-Olivier Méhu
Technical & hardware support : Manuel Goepfert

Contact : metmap@orbifly.com




SOURCES & CREDITS :

   NOAA       Earth
Advisory